Time;durP1;ratioP1;P1;durP2;ratioP2;P2;SDS_P1;SDS_P2;PMS_P1;PMS_P2;Temp;Humidity;BMP_temperature;BMP_pressure;BME280_temperature;BME280_humidity;BME280_pressure;Samples;Min_cycle;Max_cycle;Signal;HPM_P1;HPM_P2
2023/04/04 00:00:15;;;;;;;2.45;2.30;;;;;;;1.61;76.84;99550.06;4188459;28;20258;-51
2023/04/04 00:02:17;;;;;;;1.65;1.55;;;;;;;1.58;78.00;99555.78;4169004;28;20259;-50
2023/04/04 00:04:18;;;;;;;1.95;1.65;;;;;;;1.51;76.89;99550.25;4188083;28;20238;-51
2023/04/04 00:06:20;;;;;;;1.70;1.60;;;;;;;1.55;76.96;99556.97;4169007;28;20756;-51
2023/04/04 00:08:22;;;;;;;2.80;2.10;;;;;;;1.55;77.19;99553.44;4170913;28;20256;-51
2023/04/04 00:10:24;;;;;;;1.92;1.13;;;;;;;1.51;77.58;99552.94;4177584;28;20226;-51
2023/04/04 00:12:26;;;;;;;3.15;2.22;;;;;;;1.37;78.28;99547.34;4174712;28;20208;-50
2023/04/04 00:14:31;;;;;;;1.95;1.77;;;;;;;1.42;77.97;99543.13;4171740;28;20200;-50
2023/04/04 00:16:33;;;;;;;2.33;2.10;;;;;;;1.40;77.97;99545.16;4168333;28;20664;-50
2023/04/04 00:18:35;;;;;;;2.97;1.92;;;;;;;1.31;77.90;99548.03;4169999;28;20207;-50
2023/04/04 00:20:37;;;;;;;1.52;1.35;;;;;;;1.48;78.81;99539.78;4169905;28;20243;-52
2023/04/04 00:22:40;;;;;;;3.90;1.98;;;;;;;1.33;77.67;99540.63;4169700;28;20208;-50
2023/04/04 00:24:41;;;;;;;3.53;2.15;;;;;;;1.31;78.59;99538.09;4160466;28;20240;-50
2023/04/04 00:26:43;;;;;;;1.55;1.45;;;;;;;1.42;79.02;99535.06;4189137;28;20231;-50
2023/04/04 00:28:45;;;;;;;2.25;1.80;;;;;;;1.22;77.79;99536.38;4169718;28;20233;-50
2023/04/04 00:30:47;;;;;;;9.85;2.13;;;;;;;1.32;79.04;99534.38;4200766;28;20223;-52
2023/04/04 00:32:50;;;;;;;2.70;1.73;;;;;;;1.36;78.75;99533.06;4171742;28;20254;-50
2023/04/04 00:34:52;;;;;;;2.60;1.75;;;;;;;1.30;77.82;99539.09;4189854;28;20212;-50
2023/04/04 00:36:54;;;;;;;2.97;1.65;;;;;;;1.48;78.72;99537.06;4169996;28;20918;-52
2023/04/04 00:38:56;;;;;;;3.22;1.98;;;;;;;1.21;78.55;99534.69;4200996;28;20260;-51
2023/04/04 00:40:58;;;;;;;5.25;1.70;;;;;;;1.39;78.91;99532.69;4170408;28;20255;-50
2023/04/04 00:43:00;;;;;;;3.13;2.38;;;;;;;1.39;78.53;99530.00;4157552;28;20288;-51
2023/04/04 00:45:02;;;;;;;1.63;1.52;;;;;;;1.18;78.95;99521.56;4151963;28;20244;-51
2023/04/04 00:47:03;;;;;;;2.65;1.70;;;;;;;1.21;79.02;99520.41;4184388;28;20614;-50
2023/04/04 00:49:05;;;;;;;1.95;1.73;;;;;;;1.05;79.26;99518.50;4183888;28;20304;-50
2023/04/04 00:51:07;;;;;;;2.08;1.63;;;;;;;1.08;79.58;99520.03;4170573;28;20219;-50
2023/04/04 00:53:09;;;;;;;3.90;1.70;;;;;;;0.97;80.16;99510.41;4186678;28;20212;-50
2023/04/04 00:55:11;;;;;;;4.05;2.67;;;;;;;1.16;80.40;99517.34;4158393;28;21144;-52
2023/04/04 00:57:13;;;;;;;2.35;2.15;;;;;;;1.17;79.74;99514.50;4169441;28;21650;-51
2023/04/04 00:59:15;;;;;;;3.15;1.63;;;;;;;1.13;79.95;99518.50;4184910;28;20204;-50
2023/04/04 01:01:17;;;;;;;4.53;1.60;;;;;;;0.90;80.17;99512.09;4185254;28;20219;-50
2023/04/04 01:03:19;;;;;;;2.65;2.45;;;;;;;1.04;80.56;99508.75;4182761;28;20204;-50
2023/04/04 01:05:20;;;;;;;2.13;1.55;;;;;;;0.96;80.33;99515.97;4184815;28;20215;-50
2023/04/04 01:07:22;;;;;;;3.22;2.25;;;;;;;1.03;80.38;99515.16;4179416;28;20211;-50
2023/04/04 01:09:24;;;;;;;3.63;1.85;;;;;;;1.08;80.85;99514.66;4169091;28;20227;-50
2023/04/04 01:11:27;;;;;;;2.08;1.92;;;;;;;1.10;80.51;99508.09;4169322;28;20420;-50
2023/04/04 01:13:31;;;;;;;2.28;1.80;;;;;;;1.18;80.19;99510.78;4168758;28;20216;-50
2023/04/04 01:15:33;;;;;;;2.05;1.95;;;;;;;0.97;79.99;99507.72;4193558;28;20219;-50
2023/04/04 01:17:36;;;;;;;1.50;1.40;;;;;;;0.97;80.39;99499.63;4170804;28;20679;-50
2023/04/04 01:19:46;;;;;;;2.67;2.47;;;;;;;1.13;80.75;99502.34;4171821;28;20565;-51
2023/04/04 01:21:48;;;;;;;2.30;2.03;;;;;;;1.16;80.27;99502.03;4192047;28;20217;-50
2023/04/04 01:24:02;;;;;;;3.25;2.15;;;;;;;1.26;79.47;99504.53;4174265;28;20736;-49
2023/04/04 01:26:04;;;;;;;2.85;2.13;;;;;;;1.21;79.72;99507.75;4167620;28;20229;-51
2023/04/04 01:28:07;;;;;;;4.20;2.85;;;;;;;0.96;80.28;99499.78;4169253;28;20236;-50
2023/04/04 01:30:09;;;;;;;3.15;2.35;;;;;;;0.77;80.20;99498.25;4159063;28;20240;-50
2023/04/04 01:32:28;;;;;;;2.33;2.13;;;;;;;1.05;80.76;99494.25;4172665;28;20204;-51
2023/04/04 01:34:39;;;;;;;5.05;1.90;;;;;;;1.11;80.49;99493.59;4184161;28;20214;-52
2023/04/04 01:37:02;;;;;;;2.70;2.08;;;;;;;0.99;80.16;99494.06;4182793;28;20237;-50
2023/04/04 01:39:26;;;;;;;2.58;2.38;;;;;;;0.85;80.51;99494.72;4169508;28;20977;-50
2023/04/04 01:41:32;;;;;;;2.10;1.90;;;;;;;0.75;80.88;99500.25;4170950;28;20255;-50
2023/04/04 01:43:36;;;;;;;1.63;1.52;;;;;;;0.82;80.97;99498.56;4168831;28;20224;-50
2023/04/04 01:45:38;;;;;;;2.30;1.63;;;;;;;0.98;81.19;99487.84;4166851;28;20251;-51
2023/04/04 01:47:40;;;;;;;4.50;1.77;;;;;;;0.88;80.62;99489.84;4165578;28;21619;-50
2023/04/04 01:49:42;;;;;;;6.75;2.08;;;;;;;0.81;80.54;99485.28;4169947;28;20210;-50
2023/04/04 01:51:45;;;;;;;3.65;2.38;;;;;;;0.85;81.07;99487.50;4174796;28;20701;-51
2023/04/04 01:53:46;;;;;;;2.65;2.03;;;;;;;0.63;81.38;99480.03;4157116;28;20232;-50
2023/04/04 01:55:48;;;;;;;2.28;2.08;;;;;;;0.87;81.36;99485.47;4168372;28;20232;-50
2023/04/04 01:57:50;;;;;;;2.33;2.22;;;;;;;0.79;80.98;99474.69;4158960;28;20211;-50
2023/04/04 01:59:52;;;;;;;1.93;1.80;;;;;;;0.84;81.20;99477.72;4185726;28;20300;-50
2023/04/04 02:01:53;;;;;;;1.90;1.80;;;;;;;0.89;80.94;99483.44;4185375;28;20295;-50
2023/04/04 02:03:55;;;;;;;1.98;1.60;;;;;;;0.85;81.58;99476.72;4157270;28;20259;-50
2023/04/04 02:05:57;;;;;;;8.60;2.92;;;;;;;0.73;81.21;99483.41;4153222;28;20327;-51
2023/04/04 02:07:59;;;;;;;1.75;1.65;;;;;;;0.64;80.95;99483.56;4186142;28;20684;-51
2023/04/04 02:10:03;;;;;;;3.70;2.47;;;;;;;0.55;81.45;99477.28;4171368;28;20234;-51
2023/04/04 02:12:05;;;;;;;2.42;1.83;;;;;;;0.52;81.62;99485.72;4164728;28;20217;-50
2023/04/04 02:14:07;;;;;;;9.23;2.40;;;;;;;0.57;82.54;99480.69;4158422;28;20310;-50
2023/04/04 02:16:09;;;;;;;3.75;2.38;;;;;;;0.64;82.03;99473.63;4171806;28;20251;-51
2023/04/04 02:18:11;;;;;;;4.00;1.73;;;;;;;0.38;82.97;99482.78;4170135;28;20231;-51
2023/04/04 02:20:19;;;;;;;1.98;1.88;;;;;;;0.57;82.81;99480.69;4183026;28;20269;-50
2023/04/04 02:22:21;;;;;;;4.95;2.28;;;;;;;0.62;82.41;99486.41;4147881;28;20277;-51
2023/04/04 02:24:23;;;;;;;3.22;2.67;;;;;;;0.55;82.77;99482.69;4167167;28;20247;-50
2023/04/04 02:26:24;;;;;;;2.03;1.83;;;;;;;0.62;82.65;99485.56;4169690;28;20243;-50
2023/04/04 02:28:30;;;;;;;3.63;1.77;;;;;;;0.46;83.05;99491.75;4199756;28;20707;-51
2023/04/04 02:30:32;;;;;;;2.33;2.13;;;;;;;0.44;82.80;99487.53;4169664;28;20228;-50
2023/04/04 02:32:33;;;;;;;3.60;2.22;;;;;;;0.18;82.99;99487.59;4175602;28;20854;-51
2023/04/04 02:34:36;;;;;;;4.38;2.35;;;;;;;0.14;83.39;99490.78;4169684;28;20207;-50
2023/04/04 02:36:38;;;;;;;2.55;2.25;;;;;;;0.30;83.57;99491.69;4166594;28;20231;-50
2023/04/04 02:38:40;;;;;;;8.37;2.20;;;;;;;0.24;83.42;99480.72;4165649;28;20250;-51
2023/04/04 02:40:44;;;;;;;5.78;2.83;;;;;;;0.30;83.83;99488.16;4169688;28;20208;-52
2023/04/04 02:42:49;;;;;;;2.00;1.90;;;;;;;0.28;82.95;99482.91;4170319;28;20250;-50
2023/04/04 02:44:51;;;;;;;3.13;2.83;;;;;;;0.24;82.95;99484.25;4171382;28;20211;-50
2023/04/04 02:46:53;;;;;;;2.27;2.10;;;;;;;0.10;83.69;99484.88;4155815;28;20228;-50
2023/04/04 02:48:56;;;;;;;2.42;2.33;;;;;;;0.06;83.96;99488.00;4170754;28;20307;-50
2023/04/04 02:50:58;;;;;;;2.30;2.20;;;;;;;0.19;83.89;99478.50;4166837;28;20643;-50
2023/04/04 02:53:00;;;;;;;3.37;2.50;;;;;;;0.26;83.17;99478.69;4157798;28;20702;-50
2023/04/04 02:55:03;;;;;;;2.10;2.00;;;;;;;0.34;82.38;99482.28;4156521;28;20259;-51
2023/04/04 02:57:05;;;;;;;2.10;1.90;;;;;;;0.08;82.12;99480.66;4166030;28;20225;-51
2023/04/04 02:59:07;;;;;;;1.93;1.83;;;;;;;0.23;82.16;99469.13;4155667;28;20263;-50
2023/04/04 03:01:09;;;;;;;2.60;2.37;;;;;;;0.13;82.08;99472.91;4183282;28;20204;-50
2023/04/04 03:03:11;;;;;;;5.33;2.60;;;;;;;0.16;82.23;99489.59;4167517;28;20216;-50
2023/04/04 03:05:13;;;;;;;2.53;2.43;;;;;;;-0.02;83.09;99485.28;4166681;28;20212;-51
2023/04/04 03:07:15;;;;;;;2.67;2.50;;;;;;;-0.05;82.98;99478.38;4155246;28;20223;-51
2023/04/04 03:09:17;;;;;;;4.67;2.97;;;;;;;0.02;83.66;99484.81;4169177;28;20808;-51
2023/04/04 03:11:20;;;;;;;3.03;2.43;;;;;;;0.14;82.94;99480.84;4186900;28;20214;-51
2023/04/04 03:13:22;;;;;;;5.17;2.00;;;;;;;0.13;82.29;99484.53;4167387;28;20378;-49
2023/04/04 03:15:25;;;;;;;2.60;2.40;;;;;;;0.24;82.44;99480.72;4152353;28;20240;-50
2023/04/04 03:17:28;;;;;;;2.53;2.33;;;;;;;0.12;82.21;99482.00;4167635;28;20618;-50
2023/04/04 03:19:29;;;;;;;2.97;2.77;;;;;;;0.03;82.40;99482.97;4167676;28;20204;-51
2023/04/04 03:21:31;;;;;;;2.40;2.27;;;;;;;0.10;82.15;99484.88;4152548;28;20291;-50
2023/04/04 03:23:33;;;;;;;3.37;2.87;;;;;;;0.11;82.26;99481.16;4155462;28;20283;-50
2023/04/04 03:25:35;;;;;;;2.30;2.00;;;;;;;0.20;82.09;99490.97;4187718;28;20231;-50
2023/04/04 03:27:38;;;;;;;5.47;2.17;;;;;;;0.12;82.42;99487.38;4167209;28;20204;-50
2023/04/04 03:29:41;;;;;;;2.47;2.33;;;;;;;-0.02;82.78;99493.34;4167410;28;20259;-50
2023/04/04 03:31:42;;;;;;;3.00;2.80;;;;;;;0.12;82.44;99482.84;4184862;28;20250;-50
2023/04/04 03:33:44;;;;;;;2.63;2.43;;;;;;;0.22;82.31;99486.25;4165510;28;20600;-50
2023/04/04 03:35:46;;;;;;;2.90;2.73;;;;;;;0.38;81.88;99480.09;4184661;28;20261;-50
2023/04/04 03:37:48;;;;;;;2.30;2.10;;;;;;;0.19;81.40;99478.50;4184102;28;20199;-50
2023/04/04 03:39:50;;;;;;;3.40;3.13;;;;;;;0.26;82.38;99482.25;4170231;28;20255;-50
2023/04/04 03:41:51;;;;;;;3.63;2.53;;;;;;;0.33;82.61;99475.22;4169089;28;20209;-50
2023/04/04 03:43:53;;;;;;;2.63;2.50;;;;;;;0.24;81.87;99486.94;4183130;28;20207;-50
2023/04/04 03:46:02;;;;;;;3.40;2.83;;;;;;;0.05;81.63;99476.44;4150688;28;20232;-50
2023/04/04 03:48:04;;;;;;;3.47;2.67;;;;;;;-0.12;82.13;99482.72;4195388;28;20210;-51
2023/04/04 03:50:06;;;;;;;5.70;3.50;;;;;;;0.09;82.58;99477.78;4170561;28;20228;-50
2023/04/04 03:52:08;;;;;;;2.77;2.57;;;;;;;-0.08;81.58;99469.78;4170423;28;20208;-51
2023/04/04 03:54:10;;;;;;;6.07;2.97;;;;;;;-0.02;81.94;99480.75;4152440;28;20762;-50
2023/04/04 03:56:12;;;;;;;2.80;2.60;;;;;;;0.05;81.53;99468.34;4184111;28;20615;-50
2023/04/04 03:58:14;;;;;;;2.83;2.40;;;;;;;0.00;81.84;99462.63;4154894;28;20209;-50
2023/04/04 04:00:16;;;;;;;3.93;2.67;;;;;;;0.10;81.39;99474.09;4170851;28;20211;-50
2023/04/04 04:02:18;;;;;;;2.33;2.13;;;;;;;-0.03;81.37;99457.56;4170067;28;20215;-50
2023/04/04 04:04:19;;;;;;;2.23;2.13;;;;;;;-0.07;81.42;99461.56;4172698;28;20220;-50
2023/04/04 04:06:21;;;;;;;3.07;2.40;;;;;;;-0.02;82.16;99459.25;4170166;28;20324;-50
2023/04/04 04:08:23;;;;;;;3.27;3.07;;;;;;;0.04;82.11;99464.00;4172197;28;20213;-50
2023/04/04 04:10:26;;;;;;;3.80;2.87;;;;;;;0.03;81.99;99461.44;4202864;28;20227;-52
2023/04/04 04:12:28;;;;;;;2.67;2.47;;;;;;;0.05;81.93;99457.59;4154791;28;20299;-51
2023/04/04 04:14:30;;;;;;;2.73;2.53;;;;;;;0.13;82.19;99468.41;4171127;28;20219;-51
2023/04/04 04:16:31;;;;;;;3.13;2.43;;;;;;;0.15;81.90;99471.75;4174820;28;20318;-50
2023/04/04 04:18:33;;;;;;;3.37;2.90;;;;;;;0.16;81.79;99468.06;4172736;28;20592;-49
2023/04/04 04:20:35;;;;;;;2.60;2.50;;;;;;;-0.02;81.31;99466.47;4170152;28;20270;-51
2023/04/04 04:22:37;;;;;;;2.87;2.70;;;;;;;0.08;81.64;99473.41;4186613;28;20212;-50
2023/04/04 04:24:39;;;;;;;3.87;3.27;;;;;;;0.10;81.61;99474.09;4168562;28;20288;-50
2023/04/04 04:26:42;;;;;;;3.27;2.97;;;;;;;0.24;81.13;99468.13;4166587;28;20228;-50
2023/04/04 04:28:46;;;;;;;4.70;2.30;;;;;;;0.24;81.46;99465.44;4169242;28;20212;-50
2023/04/04 04:30:48;;;;;;;2.67;2.47;;;;;;;0.16;81.19;99468.06;4157960;28;20618;-50
2023/04/04 04:32:50;;;;;;;2.60;2.47;;;;;;;0.30;80.81;99464.78;4201344;28;20264;-51
2023/04/04 04:34:52;;;;;;;2.67;2.40;;;;;;;0.17;80.64;99459.00;4169458;28;20208;-50
2023/04/04 04:36:54;;;;;;;2.87;2.63;;;;;;;0.11;81.23;99469.56;4175696;28;20220;-50
2023/04/04 04:38:55;;;;;;;2.53;2.30;;;;;;;0.14;81.67;99464.69;4186259;28;20299;-51
2023/04/04 04:40:57;;;;;;;2.90;2.70;;;;;;;0.03;81.92;99465.00;4170304;28;20207;-49
2023/04/04 04:42:59;;;;;;;3.50;2.80;;;;;;;0.09;81.52;99471.56;4202148;28;20210;-51
2023/04/04 04:45:01;;;;;;;2.13;1.93;;;;;;;0.11;81.81;99469.56;4174681;28;20203;-50
2023/04/04 04:47:03;;;;;;;4.80;2.97;;;;;;;0.07;81.94;99463.66;4172011;28;20259;-51
2023/04/04 04:49:05;;;;;;;3.13;2.43;;;;;;;0.11;81.67;99470.41;4171847;28;20347;-51
2023/04/04 04:51:07;;;;;;;2.10;1.90;;;;;;;0.19;81.69;99466.91;4173724;28;20204;-51
2023/04/04 04:53:09;;;;;;;2.40;2.20;;;;;;;0.23;81.53;99465.56;4170699;28;20216;-49
2023/04/04 04:55:11;;;;;;;3.93;1.83;;;;;;;0.09;81.69;99461.63;4171125;28;20816;-51
2023/04/04 04:57:13;;;;;;;3.40;2.30;;;;;;;0.16;81.65;99468.06;4197714;28;20204;-50
2023/04/04 04:59:15;;;;;;;2.57;2.37;;;;;;;0.15;81.44;99460.16;4168594;28;20446;-50
2023/04/04 05:01:17;;;;;;;2.90;2.63;;;;;;;0.05;81.87;99460.28;4172736;28;20212;-51
2023/04/04 05:03:18;;;;;;;3.20;2.90;;;;;;;-0.20;82.48;99459.47;4170858;28;20204;-50
2023/04/04 05:05:20;;;;;;;3.17;2.93;;;;;;;-0.21;83.08;99463.16;4167708;28;20291;-50
2023/04/04 05:07:22;;;;;;;2.17;2.07;;;;;;;-0.17;82.50;99469.91;4191355;28;20237;-50
2023/04/04 05:09:24;;;;;;;3.13;2.93;;;;;;;-0.08;82.12;99458.22;4169510;28;20243;-49
2023/04/04 05:11:26;;;;;;;2.70;2.50;;;;;;;-0.03;82.29;99462.94;4167050;28;20231;-50
2023/04/04 05:13:29;;;;;;;3.43;3.23;;;;;;;-0.07;82.71;99472.31;4190349;28;20204;-49
2023/04/04 05:15:34;;;;;;;3.50;3.20;;;;;;;-0.07;82.26;99474.16;4172612;28;21989;-50
2023/04/04 05:17:39;;;;;;;3.77;2.70;;;;;;;-0.02;82.49;99464.63;4185158;28;20226;-50
2023/04/04 05:19:44;;;;;;;5.17;4.77;;;;;;;0.03;82.65;99467.69;4169007;28;20196;-50
2023/04/04 05:21:47;;;;;;;4.17;2.50;;;;;;;-0.06;82.76;99470.50;4157071;28;20232;-51
2023/04/04 05:24:02;;;;;;;3.43;3.23;;;;;;;-0.15;82.91;99467.91;4169505;28;20195;-50
2023/04/04 05:26:07;;;;;;;3.77;2.63;;;;;;;-0.23;82.51;99476.75;4152202;28;20237;-50
2023/04/04 05:28:12;;;;;;;3.00;2.80;;;;;;;-0.25;83.07;99473.41;4180811;28;20212;-51
2023/04/04 05:30:19;;;;;;;2.60;2.40;;;;;;;-0.20;83.28;99475.59;4152864;28;20228;-50
2023/04/04 05:32:24;;;;;;;3.43;3.13;;;;;;;-0.17;83.11;99470.75;4198991;28;20211;-51
2023/04/04 05:34:30;;;;;;;3.30;3.10;;;;;;;-0.12;82.73;99468.44;4157639;28;20201;-50
2023/04/04 05:36:37;;;;;;;2.50;2.37;;;;;;;-0.03;82.95;99468.31;4159527;28;20252;-50
2023/04/04 05:38:42;;;;;;;3.13;2.93;;;;;;;-0.13;82.93;99472.97;4155250;28;20205;-49
2023/04/04 05:40:54;;;;;;;3.83;2.63;;;;;;;-0.16;82.73;99467.06;4170671;28;20195;-52
2023/04/04 05:43:03;;;;;;;3.00;2.70;;;;;;;-0.27;83.28;99472.69;4172323;28;20212;-50
2023/04/04 05:45:10;;;;;;;2.83;2.63;;;;;;;-0.16;84.25;99471.63;4174511;28;20678;-51
2023/04/04 05:47:14;;;;;;;2.80;2.60;;;;;;;-0.02;83.64;99480.75;4159710;28;20566;-50
2023/04/04 05:49:18;;;;;;;3.60;3.27;;;;;;;-0.12;82.93;99477.34;4188078;28;20292;-51
2023/04/04 05:51:26;;;;;;;3.67;3.37;;;;;;;0.14;82.65;99478.16;4170779;28;20216;-51
2023/04/04 05:53:31;;;;;;;3.13;2.90;;;;;;;0.34;82.42;99482.28;4184511;28;20761;-51
2023/04/04 05:55:35;;;;;;;3.73;3.13;;;;;;;0.69;82.45;99482.03;4157887;28;20278;-51
2023/04/04 05:57:50;;;;;;;2.47;2.27;;;;;;;0.82;80.27;99487.81;4156487;28;20285;-51
2023/04/04 05:59:53;;;;;;;3.73;3.47;;;;;;;0.62;79.94;99491.78;4188433;28;20291;-51
2023/04/04 06:02:02;;;;;;;3.00;2.70;;;;;;;0.79;79.02;99484.59;4186489;28;20291;-51
2023/04/04 06:04:11;;;;;;;3.00;2.70;;;;;;;1.14;82.31;99487.03;4174379;28;20199;-51
2023/04/04 06:06:19;;;;;;;2.88;2.67;;;;;;;1.01;79.31;99482.13;4157264;28;20737;-51
2023/04/04 06:08:23;;;;;;;2.47;2.37;;;;;;;0.70;78.32;99483.75;4187140;28;20215;-51
2023/04/04 06:10:29;;;;;;;2.35;2.15;;;;;;;0.78;78.76;99483.78;4158848;28;20255;-50
2023/04/04 06:12:34;;;;;;;3.50;3.03;;;;;;;1.09;81.17;99487.50;4166227;28;20572;-50
2023/04/04 06:14:43;;;;;;;2.55;2.10;;;;;;;1.12;78.72;99481.81;4157513;28;20204;-50
2023/04/04 06:16:49;;;;;;;2.33;2.10;;;;;;;1.29;78.21;99483.47;4164690;28;20223;-53
2023/04/04 06:18:55;;;;;;;2.85;2.35;;;;;;;1.41;75.19;99482.13;4156451;28;20662;-50
2023/04/04 06:21:00;;;;;;;2.35;2.15;;;;;;;1.67;75.88;99490.91;4185377;28;20674;-50
2023/04/04 06:23:08;;;;;;;4.13;2.67;;;;;;;1.60;74.63;99483.66;4166661;28;20291;-50
2023/04/04 06:25:13;;;;;;;3.35;2.13;;;;;;;1.40;74.60;99487.72;4180697;28;20773;-50
2023/04/04 06:27:15;;;;;;;2.45;2.25;;;;;;;1.88;73.76;99477.69;4165885;28;20239;-51
2023/04/04 06:29:18;;;;;;;4.32;2.35;;;;;;;1.96;74.47;99485.81;4182037;28;20665;-50
2023/04/04 06:31:20;;;;;;;3.05;2.10;;;;;;;1.79;71.88;99492.22;4169078;28;20205;-50
2023/04/04 06:33:22;;;;;;;2.17;2.05;;;;;;;2.12;72.68;99485.75;4171536;28;20204;-51
2023/04/04 06:35:24;;;;;;;2.42;2.22;;;;;;;2.12;73.74;99491.16;4165961;28;20837;-50
2023/04/04 06:37:26;;;;;;;2.50;2.30;;;;;;;1.68;71.42;99487.19;4154175;28;20212;-51
2023/04/04 06:39:39;;;;;;;2.83;1.95;;;;;;;1.87;72.10;99494.91;4174154;28;20349;-51
2023/04/04 06:41:47;;;;;;;2.65;2.30;;;;;;;2.15;71.50;99485.41;4184188;28;20197;-50
2023/04/04 06:43:50;;;;;;;2.25;2.05;;;;;;;2.57;71.47;99502.13;4169652;28;20696;-50
2023/04/04 06:46:01;;;;;;;2.33;2.20;;;;;;;3.13;69.70;99498.28;4170273;28;20306;-50
2023/04/04 06:48:03;;;;;;;2.65;2.33;;;;;;;2.77;69.07;99492.59;4157952;28;20299;-51
2023/04/04 06:50:06;;;;;;;3.03;2.50;;;;;;;2.44;69.17;99499.16;4170370;28;20336;-49
2023/04/04 06:52:08;;;;;;;1.85;1.75;;;;;;;2.79;70.38;99501.34;4170381;28;20218;-50
2023/04/04 06:54:10;;;;;;;4.10;1.92;;;;;;;3.04;66.62;99505.59;4167012;28;20681;-50
2023/04/04 06:56:13;;;;;;;2.25;1.83;;;;;;;3.03;67.03;99503.91;4186243;28;20304;-50
2023/04/04 06:58:22;;;;;;;4.85;1.60;;;;;;;2.90;66.76;99503.66;4170177;28;20232;-49
2023/04/04 07:00:26;;;;;;;2.60;1.88;;;;;;;3.01;66.71;99500.53;4198446;28;20202;-50
2023/04/04 07:02:28;;;;;;;2.03;1.83;;;;;;;2.70;66.52;99493.44;4175159;28;20617;-49
2023/04/04 07:04:34;;;;;;;5.47;2.28;;;;;;;2.51;66.09;99502.84;4201859;28;20210;-49
2023/04/04 07:06:36;;;;;;;1.98;1.88;;;;;;;2.46;67.24;99494.41;4165831;28;20250;-51
2023/04/04 07:08:47;;;;;;;4.03;2.25;;;;;;;2.75;68.80;99493.78;4167967;28;20204;-50
2023/04/04 07:10:50;;;;;;;3.20;1.95;;;;;;;2.54;66.81;99502.47;4170251;28;20251;-50
2023/04/04 07:12:53;;;;;;;4.13;2.78;;;;;;;2.84;67.38;99496.25;4175880;28;20291;-51
2023/04/04 07:14:56;;;;;;;6.55;2.05;;;;;;;3.01;67.25;99505.94;4169092;28;20208;-50
2023/04/04 07:17:09;;;;;;;2.63;2.42;;;;;;;3.19;64.41;99495.69;4170508;28;20653;-50
2023/04/04 07:19:37;;;;;;;1.90;1.80;;;;;;;3.31;64.34;99501.50;4170380;28;20249;-51
2023/04/04 07:21:43;;;;;;;2.25;2.05;;;;;;;3.66;65.19;99495.50;4169668;28;20204;-50
2023/04/04 07:23:46;;;;;;;4.03;2.13;;;;;;;3.22;63.01;99500.75;4168141;28;20207;-50
2023/04/04 07:25:48;;;;;;;2.08;1.98;;;;;;;3.65;64.43;99513.59;4189605;28;20255;-50
2023/04/04 07:27:52;;;;;;;1.98;1.88;;;;;;;3.32;65.01;99497.78;4156457;28;20801;-50
2023/04/04 07:30:07;;;;;;;2.17;1.70;;;;;;;3.54;64.99;99505.91;4166570;28;20215;-50
2023/04/04 07:32:08;;;;;;;2.13;1.88;;;;;;;3.69;65.83;99500.53;4173521;28;20712;-50
2023/04/04 07:34:10;;;;;;;1.95;1.85;;;;;;;3.69;63.17;99495.13;4156611;28;20236;-50
2023/04/04 07:36:12;;;;;;;3.13;2.58;;;;;;;3.57;64.08;99497.44;4170718;28;20223;-51
2023/04/04 07:38:15;;;;;;;25.60;4.55;;;;;;;3.19;65.00;99498.41;4175640;28;20273;-50
2023/04/04 07:40:17;;;;;;;4.03;2.60;;;;;;;3.27;65.72;99495.63;4172508;28;20566;-50
2023/04/04 07:42:22;;;;;;;2.70;2.38;;;;;;;3.69;65.18;99492.44;4167495;28;20215;-51
2023/04/04 07:44:25;;;;;;;2.45;2.15;;;;;;;3.62;64.62;99495.03;4168298;28;20208;-52
2023/04/04 07:46:27;;;;;;;3.25;2.00;;;;;;;4.22;66.84;99498.50;4175688;28;20845;-50
2023/04/04 07:48:29;;;;;;;4.28;2.30;;;;;;;4.34;62.72;99502.41;4170038;28;20238;-51
2023/04/04 07:50:31;;;;;;;3.67;2.35;;;;;;;4.20;61.62;99500.53;4174490;28;20636;-50
2023/04/04 07:52:33;;;;;;;4.53;2.83;;;;;;;4.67;61.39;99497.47;4167558;28;20203;-50
2023/04/04 07:54:35;;;;;;;3.20;2.00;;;;;;;4.05;62.86;99491.56;4169176;28;20246;-49
2023/04/04 07:56:38;;;;;;;2.17;1.95;;;;;;;4.56;61.34;99489.78;4170821;28;20264;-49
2023/04/04 07:58:40;;;;;;;3.17;2.08;;;;;;;4.39;62.08;99486.44;4167758;28;20522;-50
2023/04/04 08:00:43;;;;;;;2.65;2.10;;;;;;;4.62;59.75;99494.47;4183434;28;20347;-50
2023/04/04 08:02:44;;;;;;;2.20;1.88;;;;;;;4.21;58.45;99485.97;4154579;28;20988;-50
2023/04/04 08:04:46;;;;;;;2.55;1.80;;;;;;;5.14;59.84;99485.94;4169584;28;20681;-50
2023/04/04 08:06:48;;;;;;;2.67;2.35;;;;;;;5.03;59.14;99498.31;4177391;28;20607;-51
2023/04/04 08:08:51;;;;;;;1.67;1.58;;;;;;;5.13;57.88;99488.00;4169444;28;20212;-50
2023/04/04 08:10:52;;;;;;;5.18;1.48;;;;;;;5.14;56.70;99490.50;4168114;28;20220;-48
2023/04/04 08:12:54;;;;;;;2.80;2.25;;;;;;;4.67;59.44;99487.44;4168533;28;20213;-49
2023/04/04 08:14:56;;;;;;;2.10;1.65;;;;;;;4.50;59.20;99485.97;4162777;28;20670;-48
2023/04/04 08:16:58;;;;;;;5.85;2.72;;;;;;;4.44;58.77;99492.16;4187096;28;20238;-48
2023/04/04 08:19:01;;;;;;;1.92;1.70;;;;;;;4.54;59.29;99489.16;4173570;28;20242;-49
2023/04/04 08:21:03;;;;;;;2.70;1.80;;;;;;;5.42;59.11;99494.19;4171425;28;20231;-48
2023/04/04 08:23:05;;;;;;;5.32;1.88;;;;;;;5.95;58.35;99485.50;4171423;28;20254;-48
2023/04/04 08:25:08;;;;;;;4.35;1.95;;;;;;;5.64;58.75;99487.69;4162412;28;20744;-49
2023/04/04 08:27:10;;;;;;;3.05;2.10;;;;;;;5.59;56.62;99484.72;4178413;28;20227;-49
2023/04/04 08:29:12;;;;;;;19.08;3.55;;;;;;;5.69;55.73;99479.81;4171786;28;20243;-48
2023/04/04 08:31:14;;;;;;;2.05;1.73;;;;;;;5.96;57.69;99484.47;4193777;28;20239;-48
2023/04/04 08:33:16;;;;;;;2.55;2.33;;;;;;;5.87;56.08;99486.47;4178245;28;20682;-48
2023/04/04 08:35:18;;;;;;;2.33;1.60;;;;;;;5.36;54.03;99490.34;4177926;28;20208;-48
2023/04/04 08:37:20;;;;;;;2.95;1.95;;;;;;;6.83;55.45;99481.03;4178494;28;20224;-49
2023/04/04 08:39:22;;;;;;;3.72;1.73;;;;;;;7.62;53.18;99491.09;4191984;28;20204;-49
2023/04/04 08:41:24;;;;;;;1.67;1.55;;;;;;;7.09;54.69;99481.94;4170692;28;20201;-50
2023/04/04 08:43:26;;;;;;;2.83;2.25;;;;;;;7.02;53.75;99486.53;4169787;28;20592;-48
2023/04/04 08:45:29;;;;;;;2.55;2.33;;;;;;;6.45;53.64;99485.22;4188214;28;20738;-49
2023/04/04 08:47:32;;;;;;;2.58;2.38;;;;;;;6.35;53.84;99476.59;4161471;28;20224;-49
2023/04/04 08:49:38;;;;;;;6.07;2.53;;;;;;;6.32;52.90;99485.13;4186413;28;20238;-49
2023/04/04 08:51:42;;;;;;;3.22;2.08;;;;;;;5.53;52.93;99490.94;4173032;28;20341;-49
2023/04/04 08:53:45;;;;;;;1.80;1.70;;;;;;;4.89;53.11;99483.78;4182910;28;20203;-49
2023/04/04 08:55:47;;;;;;;2.83;2.00;;;;;;;4.87;54.41;99482.28;4167955;28;20228;-50
2023/04/04 08:57:49;;;;;;;2.38;2.17;;;;;;;4.84;56.20;99480.78;4156071;28;20645;-48
2023/04/04 08:59:52;;;;;;;4.50;2.15;;;;;;;5.41;55.65;99498.75;4167983;28;20224;-48
2023/04/04 09:02:03;;;;;;;2.30;1.85;;;;;;;6.72;54.69;99487.03;4167562;28;20196;-48
2023/04/04 09:04:05;;;;;;;3.35;2.10;;;;;;;5.81;52.72;99498.13;4167994;28;20284;-49
2023/04/04 09:06:10;;;;;;;5.18;2.83;;;;;;;6.01;53.85;99492.84;4166936;28;20482;-49
2023/04/04 09:08:17;;;;;;;2.67;2.55;;;;;;;5.64;53.71;99504.81;4168303;28;20237;-48
2023/04/04 09:10:25;;;;;;;2.15;2.00;;;;;;;6.39;54.87;99492.28;4166552;28;20307;-50
2023/04/04 09:12:34;;;;;;;4.70;2.15;;;;;;;6.91;52.48;99500.75;4152128;28;20209;-51
2023/04/04 09:14:38;;;;;;;2.03;1.92;;;;;;;7.02;52.83;99491.97;4177580;28;20207;-52
2023/04/04 09:16:44;;;;;;;2.47;2.22;;;;;;;7.29;52.70;99493.72;4186776;28;20230;-49
2023/04/04 09:18:51;;;;;;;2.42;2.05;;;;;;;8.32;52.48;99475.81;4161811;28;20213;-49
2023/04/04 09:20:55;;;;;;;2.25;1.75;;;;;;;6.51;52.47;99492.56;4191981;28;20203;-49
2023/04/04 09:22:57;;;;;;;1.75;1.65;;;;;;;7.29;53.75;99487.47;4155474;28;20315;-49
2023/04/04 09:24:59;;;;;;;2.40;1.90;;;;;;;6.61;51.05;99482.16;4167792;28;20673;-49
2023/04/04 09:27:01;;;;;;;3.35;1.73;;;;;;;6.79;52.79;99479.75;4173166;28;20239;-49
2023/04/04 09:29:03;;;;;;;3.95;1.83;;;;;;;7.86;54.25;99479.56;4167595;28;20351;-50
2023/04/04 09:31:08;;;;;;;2.30;2.13;;;;;;;7.31;52.50;99485.38;4167485;28;20232;-49
2023/04/04 09:33:20;;;;;;;2.50;1.85;;;;;;;6.75;50.85;99489.34;4167980;28;20252;-49
2023/04/04 09:35:22;;;;;;;1.83;1.58;;;;;;;6.81;51.81;99489.38;4170172;28;20300;-48
2023/04/04 09:37:24;;;;;;;3.50;2.50;;;;;;;6.85;51.89;99487.09;4155283;28;20209;-49
2023/04/04 09:39:26;;;;;;;2.55;2.35;;;;;;;8.08;51.59;99483.78;4177291;28;20307;-51
2023/04/04 09:41:28;;;;;;;2.42;2.05;;;;;;;7.61;49.38;99481.25;4168908;28;20204;-50
2023/04/04 09:43:31;;;;;;;2.10;1.90;;;;;;;7.27;50.64;99487.66;4185074;28;20718;-48
2023/04/04 09:45:39;;;;;;;1.85;1.75;;;;;;;7.24;50.23;99484.50;4168700;28;20235;-49
2023/04/04 09:47:41;;;;;;;2.50;2.30;;;;;;;7.00;49.87;99482.31;4168879;28;20292;-49